Time;durP1;ratioP1;P1;durP2;ratioP2;P2;SDS_P1;SDS_P2;PMS_P1;PMS_P2;Temp;Humidity;BMP_temperature;BMP_pressure;BME280_temperature;BME280_humidity;BME280_pressure;Samples;Min_cycle;Max_cycle;Signal;HPM_P1;HPM_P2
2022/01/06 00:01:16;;;;;;;23.33;3.88;;;;;;;4.24;100.00;101457.78;5211005;28;20044;-70
2022/01/06 00:03:47;;;;;;;17.73;3.67;;;;;;;4.26;100.00;101468.94;5192889;28;20155;-71
2022/01/06 00:06:20;;;;;;;15.65;3.67;;;;;;;4.20;100.00;101457.09;5210296;28;20475;-72
2022/01/06 00:08:54;;;;;;;12.57;3.33;;;;;;;4.21;100.00;101463.16;5209416;28;20034;-70
2022/01/06 00:11:26;;;;;;;12.23;3.70;;;;;;;4.18;100.00;101465.88;5193205;28;20026;-70
2022/01/06 00:14:04;;;;;;;18.70;4.57;;;;;;;4.17;100.00;101471.97;5209189;28;20052;-71
2022/01/06 00:24:30;;;;;;;22.27;3.92;;;;;;;4.02;100.00;101463.19;5208779;28;20054;-71
2022/01/06 00:27:01;;;;;;;15.40;4.00;;;;;;;4.00;100.00;101472.78;5208088;28;20132;-71
2022/01/06 00:29:33;;;;;;;14.45;3.22;;;;;;;3.98;100.00;101475.47;5210645;28;20038;-71
2022/01/06 00:32:04;;;;;;;18.67;4.43;;;;;;;3.94;100.00;101480.84;5211201;28;20502;-71
2022/01/06 00:34:36;;;;;;;17.88;4.20;;;;;;;3.86;100.00;101476.00;5210076;28;20099;-71
2022/01/06 00:37:08;;;;;;;20.23;4.05;;;;;;;3.88;100.00;101481.97;5210779;28;20029;-72
2022/01/06 00:39:39;;;;;;;16.83;4.10;;;;;;;3.90;100.00;101490.50;5210866;28;20030;-72
2022/01/06 00:42:10;;;;;;;18.13;3.65;;;;;;;3.87;100.00;101495.84;5210695;28;20061;-72
2022/01/06 00:44:42;;;;;;;16.85;3.60;;;;;;;3.80;100.00;101492.69;5210963;28;20068;-72
2022/01/06 00:47:13;;;;;;;14.82;3.78;;;;;;;3.81;100.00;101490.94;5212536;28;20562;-72
2022/01/06 00:49:45;;;;;;;15.57;3.92;;;;;;;3.79;100.00;101508.31;5213752;28;20116;-72
2022/01/06 00:52:16;;;;;;;19.50;3.53;;;;;;;3.76;100.00;101504.13;5214407;28;20164;-72
2022/01/06 00:54:47;;;;;;;15.48;4.10;;;;;;;3.73;100.00;101501.66;5214758;28;20153;-71
2022/01/06 00:57:18;;;;;;;16.63;4.05;;;;;;;3.70;100.00;101498.38;5214276;28;20468;-71
2022/01/06 00:59:50;;;;;;;17.27;4.15;;;;;;;3.72;100.00;101506.94;5213508;28;20137;-71
2022/01/06 01:02:21;;;;;;;18.02;3.58;;;;;;;3.70;100.00;101496.63;5210343;28;20422;-71
2022/01/06 01:04:53;;;;;;;16.10;3.58;;;;;;;3.68;100.00;101505.38;5209902;28;20100;-71
2022/01/06 01:07:24;;;;;;;17.08;3.33;;;;;;;3.63;100.00;101502.97;5210954;28;20100;-70
2022/01/06 01:09:55;;;;;;;14.23;3.63;;;;;;;3.63;100.00;101500.41;5194643;28;20052;-71
2022/01/06 01:12:27;;;;;;;15.10;3.50;;;;;;;3.61;100.00;101504.81;5214330;28;20060;-70
2022/01/06 01:15:07;;;;;;;16.05;3.53;;;;;;;3.56;100.00;101510.22;5213998;28;20045;-70
2022/01/06 01:17:38;;;;;;;18.25;3.33;;;;;;;3.56;100.00;101514.53;5214038;28;20040;-71
2022/01/06 01:20:10;;;;;;;17.83;4.30;;;;;;;3.55;100.00;101497.31;5213443;28;20022;-72
2022/01/06 01:22:41;;;;;;;18.02;3.83;;;;;;;3.55;100.00;101516.28;5196466;28;20018;-72
2022/01/06 01:25:14;;;;;;;16.00;4.25;;;;;;;3.57;100.00;101500.69;5213816;28;20072;-72
2022/01/06 01:27:45;;;;;;;14.02;4.05;;;;;;;3.54;100.00;101509.44;5213131;28;20084;-71
2022/01/06 01:30:17;;;;;;;16.05;3.80;;;;;;;3.51;100.00;101513.91;5213950;28;20430;-71
2022/01/06 01:32:51;;;;;;;17.88;4.45;;;;;;;3.48;100.00;101514.88;5213697;28;20033;-71
2022/01/06 01:35:23;;;;;;;12.45;3.40;;;;;;;3.45;100.00;101511.56;5213251;28;20029;-71
2022/01/06 01:37:55;;;;;;;15.85;3.13;;;;;;;3.45;100.00;101525.41;5207596;28;20018;-71
2022/01/06 01:40:26;;;;;;;16.55;3.03;;;;;;;3.43;100.00;101529.78;5213197;28;20041;-71
2022/01/06 01:42:57;;;;;;;15.75;3.33;;;;;;;3.36;100.00;101525.78;5213791;28;20025;-71
2022/01/06 01:45:32;;;;;;;12.20;3.10;;;;;;;3.35;100.00;101527.53;5211126;28;20530;-71
2022/01/06 01:48:06;;;;;;;15.60;2.97;;;;;;;3.28;100.00;101530.47;5210206;28;20111;-71
2022/01/06 01:50:38;;;;;;;15.50;3.13;;;;;;;3.30;100.00;101536.44;5211381;28;20048;-70
2022/01/06 01:53:09;;;;;;;16.67;3.85;;;;;;;3.29;100.00;101545.06;5213355;28;20382;-70
2022/01/06 01:55:40;;;;;;;19.58;3.95;;;;;;;3.34;100.00;101553.50;5207481;28;20041;-71
2022/01/06 01:58:13;;;;;;;19.30;4.55;;;;;;;3.28;100.00;101553.75;5212160;28;20072;-72
2022/01/06 02:00:44;;;;;;;19.40;3.05;;;;;;;3.26;100.00;101561.63;5213139;28;20697;-71
2022/01/06 02:03:15;;;;;;;18.10;3.30;;;;;;;3.24;100.00;101558.22;5213333;28;20034;-71
2022/01/06 02:05:47;;;;;;;20.35;3.58;;;;;;;3.20;100.00;101561.84;5211279;28;20025;-71
2022/01/06 02:08:18;;;;;;;15.25;2.92;;;;;;;3.23;100.00;101566.06;5213049;28;20024;-70
2022/01/06 02:10:49;;;;;;;16.67;3.97;;;;;;;3.21;100.00;101567.88;5212983;28;20065;-70
2022/01/06 02:13:27;;;;;;;14.85;3.20;;;;;;;3.21;100.00;101562.69;5210409;28;20710;-70
2022/01/06 02:16:01;;;;;;;17.70;3.40;;;;;;;3.22;100.00;101562.66;5211854;28;20479;-71
2022/01/06 02:18:32;;;;;;;16.50;3.42;;;;;;;3.14;100.00;101562.97;5213256;28;20483;-70
2022/01/06 02:21:04;;;;;;;15.57;3.28;;;;;;;3.14;100.00;101567.28;5213037;28;20199;-72
2022/01/06 02:23:35;;;;;;;21.15;3.50;;;;;;;3.10;100.00;101573.50;5212255;28;20026;-71
2022/01/06 02:26:07;;;;;;;20.20;4.47;;;;;;;3.13;100.00;101569.03;5212250;28;20026;-71
2022/01/06 02:28:40;;;;;;;16.42;3.03;;;;;;;3.06;100.00;101564.19;5212845;28;20471;-70
2022/01/06 02:31:11;;;;;;;18.38;3.15;;;;;;;3.07;100.00;101578.78;5211427;28;20505;-70
2022/01/06 02:33:43;;;;;;;19.17;3.20;;;;;;;3.03;100.00;101572.06;5212705;28;20025;-70
2022/01/06 02:36:14;;;;;;;21.48;3.72;;;;;;;3.02;100.00;101573.81;5212284;28;20109;-70
2022/01/06 02:38:45;;;;;;;15.25;2.88;;;;;;;3.03;100.00;101575.53;5213175;28;20033;-70
2022/01/06 02:41:17;;;;;;;14.70;3.30;;;;;;;3.00;100.00;101575.66;5212021;28;20032;-71
2022/01/06 02:43:49;;;;;;;13.85;3.33;;;;;;;3.01;100.00;101574.72;5211088;28;20025;-71
2022/01/06 02:46:21;;;;;;;14.05;3.20;;;;;;;2.95;100.00;101572.38;5212025;28;20103;-71
2022/01/06 02:48:52;;;;;;;13.93;4.25;;;;;;;2.95;100.00;101569.81;5192073;28;20286;-71
2022/01/06 02:51:23;;;;;;;15.70;2.67;;;;;;;2.94;100.00;101565.53;5212245;28;20133;-71
2022/01/06 02:53:55;;;;;;;14.23;3.85;;;;;;;2.89;100.00;101557.13;5211517;28;20032;-70
2022/01/06 02:56:26;;;;;;;18.23;2.97;;;;;;;2.89;100.00;101573.50;5210801;28;20061;-71
2022/01/06 02:58:58;;;;;;;17.98;3.75;;;;;;;2.88;100.00;101571.81;5212093;28;20028;-71
2022/01/06 03:01:29;;;;;;;14.77;3.65;;;;;;;2.86;100.00;101576.19;5204676;28;20037;-70
2022/01/06 03:04:00;;;;;;;21.60;3.17;;;;;;;2.86;100.00;101571.03;5182649;28;20457;-70
2022/01/06 03:06:32;;;;;;;16.40;3.10;;;;;;;2.82;100.00;101579.00;5210060;28;20026;-71
2022/01/06 03:09:03;;;;;;;19.92;4.28;;;;;;;2.79;100.00;101569.59;5211820;28;20095;-71
2022/01/06 03:11:40;;;;;;;17.52;3.78;;;;;;;2.80;100.00;101580.78;5210678;28;20033;-71
2022/01/06 03:14:12;;;;;;;16.38;3.42;;;;;;;2.78;100.00;101574.84;5211351;28;20448;-71
2022/01/06 03:16:44;;;;;;;16.27;3.15;;;;;;;2.79;100.00;101585.13;5207850;28;20021;-71
2022/01/06 03:19:15;;;;;;;20.52;4.07;;;;;;;2.81;100.00;101591.09;5193395;28;20025;-71
2022/01/06 03:21:46;;;;;;;18.85;2.95;;;;;;;2.80;100.00;101591.13;5207198;28;20065;-71
2022/01/06 03:24:18;;;;;;;17.52;2.53;;;;;;;2.79;100.00;101592.03;5208076;28;20049;-71
2022/01/06 03:26:49;;;;;;;15.43;3.38;;;;;;;2.76;100.00;101587.81;5211963;28;20033;-71
2022/01/06 03:29:20;;;;;;;17.85;3.05;;;;;;;2.81;100.00;101596.25;5211699;28;20041;-70
2022/01/06 03:31:52;;;;;;;13.93;2.85;;;;;;;2.82;100.00;101604.88;5210497;28;20044;-70
2022/01/06 03:34:23;;;;;;;13.43;2.92;;;;;;;2.75;100.00;101606.00;5211089;28;20495;-71
2022/01/06 03:36:54;;;;;;;17.95;3.15;;;;;;;2.85;100.00;101612.50;5210930;28;20392;-71
2022/01/06 03:39:26;;;;;;;14.20;3.03;;;;;;;2.88;100.00;101612.41;5209447;28;20060;-70
2022/01/06 03:41:58;;;;;;;13.98;3.50;;;;;;;2.91;100.00;101604.47;5209971;28;20080;-70
2022/01/06 03:44:30;;;;;;;23.77;3.60;;;;;;;2.97;100.00;101612.00;5210824;28;20056;-72
2022/01/06 03:47:01;;;;;;;19.65;3.88;;;;;;;2.96;100.00;101612.09;5211421;28;20116;-71
2022/01/06 03:49:33;;;;;;;18.25;4.18;;;;;;;2.96;100.00;101612.91;5211792;28;20164;-71
2022/01/06 03:52:04;;;;;;;17.48;3.55;;;;;;;2.90;100.00;101619.16;5210875;28;20025;-71
2022/01/06 03:54:35;;;;;;;20.33;4.05;;;;;;;2.80;100.00;101617.84;5211234;28;20480;-71
2022/01/06 03:57:07;;;;;;;15.07;3.13;;;;;;;2.82;100.00;101615.22;5210619;28;20026;-71
2022/01/06 03:59:38;;;;;;;18.65;3.65;;;;;;;2.75;100.00;101608.59;5207442;28;20049;-70
2022/01/06 04:02:09;;;;;;;12.40;2.65;;;;;;;2.79;100.00;101615.34;5204754;28;20033;-70
2022/01/06 04:04:41;;;;;;;18.00;4.47;;;;;;;2.80;100.00;101620.44;5189913;28;20022;-71
2022/01/06 04:07:12;;;;;;;17.70;3.53;;;;;;;2.79;100.00;101616.16;5208021;28;20029;-70
2022/01/06 04:09:43;;;;;;;15.88;2.67;;;;;;;2.79;100.00;101607.56;5205085;28;20566;-70
2022/01/06 04:12:14;;;;;;;17.58;3.45;;;;;;;2.75;100.00;101608.59;5205978;28;20030;-70
2022/01/06 04:14:46;;;;;;;12.85;3.00;;;;;;;2.77;100.00;101619.75;5205010;28;20030;-72
2022/01/06 04:17:17;;;;;;;19.55;3.17;;;;;;;2.79;100.00;101623.94;5210827;28;20033;-71
2022/01/06 04:19:48;;;;;;;19.98;3.33;;;;;;;2.77;100.00;101619.75;5209512;28;20104;-71
2022/01/06 04:22:20;;;;;;;21.85;3.03;;;;;;;2.68;100.00;101621.75;5194748;28;20030;-70
2022/01/06 04:24:51;;;;;;;14.52;3.60;;;;;;;2.71;100.00;101630.31;5214146;28;20021;-71
2022/01/06 04:27:22;;;;;;;16.92;3.47;;;;;;;2.70;100.00;101632.06;5214365;28;20030;-71
2022/01/06 04:29:54;;;;;;;18.65;3.22;;;;;;;2.67;100.00;101639.94;5213834;28;20029;-71
2022/01/06 04:32:25;;;;;;;16.63;3.08;;;;;;;2.68;100.00;101639.03;5214947;28;20062;-70
2022/01/06 04:34:56;;;;;;;18.70;3.33;;;;;;;2.68;100.00;101636.44;5214588;28;20030;-71
2022/01/06 04:37:28;;;;;;;12.00;2.78;;;;;;;2.70;100.00;101631.22;5215191;28;20395;-70
2022/01/06 04:40:00;;;;;;;18.73;3.50;;;;;;;2.68;100.00;101636.44;5213881;28;20036;-71
2022/01/06 04:42:31;;;;;;;16.73;3.28;;;;;;;2.65;100.00;101634.84;5214949;28;20033;-71
2022/01/06 04:47:35;;;;;;;12.30;3.45;;;;;;;2.63;100.00;101649.56;5204456;23;20058;-72
2022/01/06 04:50:07;;;;;;;20.88;3.42;;;;;;;2.60;100.00;101654.84;5188953;28;20253;-72
2022/01/06 04:52:38;;;;;;;24.08;4.75;;;;;;;2.63;100.00;101654.75;5194020;28;20034;-72
2022/01/06 04:55:10;;;;;;;19.67;3.65;;;;;;;2.59;100.00;101649.75;5193815;28;20113;-71
2022/01/06 04:57:41;;;;;;;17.13;2.97;;;;;;;2.60;100.00;101649.69;5214154;28;20018;-72
2022/01/06 05:00:13;;;;;;;14.32;2.92;;;;;;;2.57;100.00;101657.56;5208205;28;20052;-72
2022/01/06 05:02:44;;;;;;;19.75;3.65;;;;;;;2.58;100.00;101661.84;5208167;28;20577;-72
2022/01/06 05:05:15;;;;;;;16.63;3.17;;;;;;;2.58;100.00;101655.84;5191429;28;20080;-72
2022/01/06 05:07:46;;;;;;;16.65;3.25;;;;;;;2.56;100.00;101657.63;5210687;28;20736;-72
2022/01/06 05:10:18;;;;;;;21.50;3.80;;;;;;;2.54;100.00;101662.88;5195378;28;20034;-72
2022/01/06 05:12:49;;;;;;;19.27;4.38;;;;;;;2.53;100.00;101658.56;5213737;28;20022;-72
2022/01/06 05:15:20;;;;;;;20.08;3.88;;;;;;;2.48;100.00;101673.44;5213160;28;20237;-72
2022/01/06 05:17:52;;;;;;;21.88;4.47;;;;;;;2.42;100.00;101674.53;5213815;28;20387;-71
2022/01/06 05:20:25;;;;;;;14.25;2.40;;;;;;;2.46;100.00;101669.22;5213154;28;20026;-72
2022/01/06 05:22:57;;;;;;;13.77;2.85;;;;;;;2.43;100.00;101672.78;5213328;28;20033;-72
2022/01/06 05:25:30;;;;;;;17.92;3.17;;;;;;;2.40;100.00;101676.31;5213352;28;20026;-71
2022/01/06 05:28:02;;;;;;;21.45;3.03;;;;;;;2.41;100.00;101678.00;5212445;28;20030;-71
2022/01/06 05:30:33;;;;;;;12.77;2.55;;;;;;;2.34;100.00;101678.28;5213245;28;20434;-71
2022/01/06 05:33:04;;;;;;;13.10;2.40;;;;;;;2.31;100.00;101680.97;5211974;28;20285;-71
2022/01/06 05:35:36;;;;;;;14.88;3.15;;;;;;;2.28;100.00;101686.28;5213355;28;20036;-71
2022/01/06 05:38:07;;;;;;;9.35;2.88;;;;;;;2.23;100.00;101693.34;5213207;28;20409;-71
2022/01/06 05:40:38;;;;;;;10.70;2.65;;;;;;;2.21;100.00;101695.16;5212920;28;20026;-72
2022/01/06 05:43:10;;;;;;;9.10;2.45;;;;;;;2.19;100.00;101697.78;5213328;28;20026;-71
2022/01/06 05:45:42;;;;;;;14.40;2.90;;;;;;;2.08;100.00;101687.81;5212876;28;20045;-71
2022/01/06 05:48:13;;;;;;;23.73;3.75;;;;;;;2.16;100.00;101697.91;5212816;28;20053;-71
2022/01/06 05:50:48;;;;;;;14.20;3.53;;;;;;;2.13;100.00;101696.28;5213287;28;20026;-71
2022/01/06 05:53:20;;;;;;;13.15;3.47;;;;;;;2.08;100.00;101700.75;5212785;28;20030;-71
2022/01/06 05:55:51;;;;;;;10.70;2.67;;;;;;;2.07;100.00;101700.81;5212166;28;20491;-71
2022/01/06 05:58:22;;;;;;;11.52;2.50;;;;;;;2.04;100.00;101706.06;5210715;28;20029;-72
2022/01/06 06:00:53;;;;;;;12.90;3.33;;;;;;;1.96;100.00;101708.94;5210397;28;20249;-71
2022/01/06 06:03:27;;;;;;;10.50;2.63;;;;;;;2.01;100.00;101717.38;5210578;28;20398;-71
2022/01/06 06:05:58;;;;;;;10.60;2.92;;;;;;;1.95;100.00;101723.59;5212802;28;20037;-71
2022/01/06 06:08:30;;;;;;;9.43;2.67;;;;;;;1.85;100.00;101705.88;5210574;28;20037;-72
2022/01/06 06:11:01;;;;;;;13.85;3.88;;;;;;;1.90;100.00;101727.25;5212439;28;20041;-71
2022/01/06 06:13:32;;;;;;;10.35;2.80;;;;;;;1.92;100.00;101733.19;5212478;28;20059;-71
2022/01/06 06:16:04;;;;;;;17.02;3.38;;;;;;;1.91;100.00;101729.78;5210845;28;20030;-71
2022/01/06 06:18:35;;;;;;;10.30;3.20;;;;;;;1.94;100.00;101731.41;5210227;28;20021;-71
2022/01/06 06:21:07;;;;;;;13.18;3.03;;;;;;;1.92;100.00;101735.78;5211650;28;20062;-71
2022/01/06 06:23:39;;;;;;;14.68;3.10;;;;;;;1.91;100.00;101739.28;5210642;28;20022;-71
2022/01/06 06:26:11;;;;;;;14.82;3.30;;;;;;;1.91;100.00;101739.28;5212376;28;20032;-71
2022/01/06 06:28:42;;;;;;;12.25;3.70;;;;;;;1.89;100.00;101739.31;5209989;28;20030;-71
2022/01/06 06:31:14;;;;;;;12.93;3.42;;;;;;;1.86;100.00;101731.69;5210341;28;20080;-71
2022/01/06 06:33:45;;;;;;;14.85;3.70;;;;;;;1.83;100.00;101746.44;5212204;28;20038;-72
2022/01/06 06:36:16;;;;;;;20.55;3.53;;;;;;;1.86;100.00;101748.94;5211458;28;20416;-71
2022/01/06 06:38:47;;;;;;;20.10;4.25;;;;;;;1.85;100.00;101742.06;5207521;28;20034;-72
2022/01/06 06:41:19;;;;;;;17.85;3.40;;;;;;;1.85;100.00;101742.88;5211753;28;20422;-72
2022/01/06 06:43:50;;;;;;;13.38;3.40;;;;;;;1.83;100.00;101743.84;5211836;28;20500;-71
2022/01/06 06:46:22;;;;;;;12.25;3.80;;;;;;;1.80;100.00;101752.53;5192797;28;20134;-72
2022/01/06 06:48:53;;;;;;;13.32;3.75;;;;;;;1.76;100.00;101750.97;5208624;28;20075;-72
2022/01/06 06:51:25;;;;;;;10.93;3.10;;;;;;;1.74;100.00;101755.31;5209021;28;20030;-72
2022/01/06 06:53:56;;;;;;;15.13;3.92;;;;;;;1.77;100.00;101762.97;5210388;28;20030;-71
2022/01/06 06:56:27;;;;;;;14.45;3.08;;;;;;;1.79;100.00;101763.78;5206120;28;20164;-71
2022/01/06 06:58:59;;;;;;;14.10;2.97;;;;;;;1.78;100.00;101758.66;5207962;28;20032;-72
2022/01/06 07:01:30;;;;;;;15.52;3.35;;;;;;;1.81;100.00;101766.31;5210285;28;20032;-72
2022/01/06 07:04:01;;;;;;;16.40;3.03;;;;;;;1.76;100.00;101758.72;5191077;28;20924;-71
2022/01/06 07:06:32;;;;;;;18.17;3.03;;;;;;;1.82;100.00;101778.31;5209888;28;20382;-72
2022/01/06 07:09:04;;;;;;;10.82;3.08;;;;;;;1.81;100.00;101779.22;5210560;28;20017;-72
2022/01/06 07:11:35;;;;;;;17.85;3.10;;;;;;;1.80;100.00;101780.97;5209272;28;20033;-72
2022/01/06 07:14:06;;;;;;;14.73;2.88;;;;;;;1.82;100.00;101783.47;5210166;28;20468;-72
2022/01/06 07:16:38;;;;;;;21.52;4.93;;;;;;;1.81;100.00;101786.97;5188080;28;20386;-71
2022/01/06 07:19:09;;;;;;;17.90;3.42;;;;;;;1.81;100.00;101792.13;5206261;28;20087;-72
2022/01/06 07:21:40;;;;;;;15.00;3.53;;;;;;;1.82;100.00;101799.00;5209029;28;20482;-72
2022/01/06 07:24:12;;;;;;;14.88;2.90;;;;;;;1.63;100.00;101788.41;5212150;28;20108;-72
2022/01/06 07:26:43;;;;;;;11.43;2.63;;;;;;;1.68;100.00;101795.13;5205562;28;20033;-71
2022/01/06 07:29:15;;;;;;;12.27;2.67;;;;;;;1.76;100.00;101807.81;5200468;28;20033;-72
2022/01/06 07:31:46;;;;;;;16.85;3.08;;;;;;;1.69;100.00;101801.97;5210188;28;20100;-71
2022/01/06 07:34:18;;;;;;;17.42;3.30;;;;;;;1.74;100.00;101813.91;5206168;28;20037;-71
2022/01/06 07:36:49;;;;;;;15.38;2.85;;;;;;;1.69;100.00;101814.06;5209862;28;20029;-71
2022/01/06 07:39:21;;;;;;;10.93;2.28;;;;;;;1.68;100.00;101810.63;5204831;28;20025;-71
2022/01/06 07:41:52;;;;;;;12.00;2.65;;;;;;;1.71;100.00;101817.44;5208673;28;20021;-71
2022/01/06 07:44:24;;;;;;;14.55;3.00;;;;;;;1.63;100.00;101816.81;5208475;28;20554;-71
2022/01/06 07:46:56;;;;;;;19.58;3.72;;;;;;;1.60;100.00;101815.19;5208697;28;20570;-71
2022/01/06 07:49:27;;;;;;;16.98;4.32;;;;;;;1.56;100.00;101802.44;5207944;28;20065;-71
2022/01/06 07:51:59;;;;;;;15.73;3.90;;;;;;;1.61;100.00;101814.31;5208599;28;20030;-71
2022/01/06 07:54:30;;;;;;;14.23;3.13;;;;;;;1.62;100.00;101815.13;5210215;28;20025;-71
2022/01/06 07:57:01;;;;;;;14.45;3.75;;;;;;;1.62;100.00;101812.56;5211762;28;20033;-71
2022/01/06 07:59:33;;;;;;;13.15;3.30;;;;;;;1.61;100.00;101822.06;5200859;28;20120;-71
2022/01/06 08:02:05;;;;;;;13.68;3.30;;;;;;;1.59;100.00;101813.53;5211729;28;20024;-71
2022/01/06 08:04:36;;;;;;;11.75;3.17;;;;;;;1.61;100.00;101822.06;5212419;28;20061;-71
2022/01/06 08:07:08;;;;;;;12.40;4.32;;;;;;;1.59;100.00;101818.69;5195441;28;20550;-71
2022/01/06 08:09:43;;;;;;;12.32;3.35;;;;;;;1.63;100.00;101833.19;5196307;28;20518;-71
2022/01/06 08:12:14;;;;;;;16.35;3.53;;;;;;;1.61;100.00;101834.97;5215213;28;20026;-71
2022/01/06 08:14:45;;;;;;;13.68;3.58;;;;;;;1.62;100.00;101834.06;5214903;28;20489;-71
2022/01/06 08:17:17;;;;;;;12.40;3.83;;;;;;;1.61;100.00;101837.53;5213703;28;20034;-71
2022/01/06 08:19:48;;;;;;;15.55;3.80;;;;;;;1.60;100.00;101835.88;5214333;28;20022;-71
2022/01/06 08:22:20;;;;;;;15.10;4.07;;;;;;;1.63;100.00;101838.34;5214998;28;20022;-71
2022/01/06 08:24:52;;;;;;;16.00;4.88;;;;;;;1.57;100.00;101830.78;5213197;28;20510;-71
2022/01/06 08:27:24;;;;;;;16.23;5.05;;;;;;;1.63;100.00;101840.06;5211007;28;20044;-71
2022/01/06 08:29:55;;;;;;;19.13;4.90;;;;;;;1.65;100.00;101839.13;5212371;28;20156;-71
2022/01/06 08:32:26;;;;;;;23.23;5.10;;;;;;;1.64;100.00;101840.03;5213849;28;20486;-71
2022/01/06 08:34:57;;;;;;;14.45;4.75;;;;;;;1.70;100.00;101847.59;5212930;28;20026;-71
2022/01/06 08:37:29;;;;;;;19.90;4.90;;;;;;;1.74;100.00;101837.16;5213257;28;20092;-71
2022/01/06 08:40:00;;;;;;;20.20;5.00;;;;;;;1.75;100.00;101837.13;5214281;28;20406;-71
2022/01/06 08:42:32;;;;;;;19.13;5.57;;;;;;;1.78;100.00;101837.03;5213401;28;20072;-71
2022/01/06 08:45:04;;;;;;;20.35;5.97;;;;;;;1.79;100.00;101843.03;5212300;28;20034;-71
2022/01/06 08:47:35;;;;;;;23.27;6.20;;;;;;;1.79;100.00;101835.28;5212762;28;20045;-71
2022/01/06 08:50:07;;;;;;;17.95;6.35;;;;;;;1.86;100.00;101845.38;5213771;28;20030;-71
2022/01/06 08:52:39;;;;;;;21.45;7.07;;;;;;;1.89;100.00;101855.59;5213070;28;20509;-72
2022/01/06 08:55:11;;;;;;;22.23;6.45;;;;;;;1.90;100.00;101846.13;5212522;28;20026;-71
2022/01/06 08:57:42;;;;;;;23.42;6.35;;;;;;;1.93;100.00;101861.50;5212964;28;20026;-71
2022/01/06 09:00:14;;;;;;;21.90;7.25;;;;;;;1.95;100.00;101855.41;5210580;28;20342;-71
2022/01/06 09:02:45;;;;;;;20.38;7.00;;;;;;;2.01;100.00;101866.41;5212805;28;20103;-71
2022/01/06 09:05:16;;;;;;;19.35;6.97;;;;;;;2.02;100.00;101858.63;5213212;28;20468;-71
2022/01/06 09:07:48;;;;;;;28.65;7.75;;;;;;;2.06;100.00;101861.97;5199607;28;20030;-71
2022/01/06 09:10:19;;;;;;;24.52;8.70;;;;;;;2.07;100.00;101861.91;5210525;28;20018;-72
2022/01/06 09:12:50;;;;;;;22.98;7.30;;;;;;;2.13;100.00;101872.03;5212863;28;20056;-72
2022/01/06 09:15:22;;;;;;;19.70;6.93;;;;;;;2.18;100.00;101870.13;5212575;28;20455;-72
2022/01/06 09:17:53;;;;;;;21.67;7.20;;;;;;;2.22;100.00;101875.22;5210474;28;20026;-72
2022/01/06 09:20:25;;;;;;;24.17;8.65;;;;;;;2.24;100.00;101865.69;5210649;28;20041;-72
2022/01/06 09:22:56;;;;;;;21.10;8.15;;;;;;;2.30;100.00;101871.47;5208238;28;20025;-72
2022/01/06 09:25:27;;;;;;;20.38;7.07;;;;;;;2.38;100.00;101879.81;5212124;28;20022;-72
2022/01/06 09:27:59;;;;;;;18.38;7.20;;;;;;;2.42;100.00;101868.50;5211792;28;20030;-72
2022/01/06 09:30:30;;;;;;;26.55;7.93;;;;;;;2.39;100.00;101865.16;5212599;28;20535;-71
2022/01/06 09:33:01;;;;;;;21.50;8.77;;;;;;;2.52;100.00;101878.50;5211704;28;20064;-71
2022/01/06 09:35:33;;;;;;;21.25;7.63;;;;;;;2.58;100.00;101881.72;5211764;28;20045;-72
2022/01/06 09:38:04;;;;;;;25.48;7.43;;;;;;;2.64;100.00;101889.25;5212410;28;20018;-72
2022/01/06 09:40:39;;;;;;;24.70;7.53;;;;;;;2.73;100.00;101889.84;5212359;28;20026;-71
2022/01/06 09:43:14;;;;;;;25.83;9.77;;;;;;;2.73;100.00;101895.00;5205776;28;20785;-72
2022/01/06 09:45:45;;;;;;;24.25;7.97;;;;;;;2.77;100.00;101891.44;5208869;28;20046;-71
2022/01/06 09:48:20;;;;;;;24.38;8.30;;;;;;;2.91;100.00;101896.94;5210868;28;20448;-72
2022/01/06 09:50:51;;;;;;;21.70;7.82;;;;;;;2.84;100.00;101879.94;5211043;28;20025;-72
2022/01/06 09:53:26;;;;;;;18.52;6.95;;;;;;;2.95;100.00;101884.75;5211277;28;20438;-72
2022/01/06 09:55:57;;;;;;;19.90;7.60;;;;;;;3.01;100.00;101898.31;5212042;28;20546;-72
2022/01/06 09:58:29;;;;;;;17.65;7.00;;;;;;;3.06;100.00;101896.38;5210526;28;20140;-71
2022/01/06 10:01:00;;;;;;;23.83;6.90;;;;;;;3.07;100.00;101892.94;5207523;28;20038;-72
2022/01/06 10:03:44;;;;;;;25.38;7.30;;;;;;;3.23;100.00;101894.94;5208376;28;20439;-71
2022/01/06 10:06:17;;;;;;;20.60;7.40;;;;;;;3.28;100.00;101900.78;5211555;28;20076;-71
2022/01/06 10:08:53;;;;;;;26.17;7.20;;;;;;;3.40;100.00;101900.31;5211932;28;20703;-71
2022/01/06 10:11:30;;;;;;;23.13;7.47;;;;;;;3.49;100.00;101901.75;5210409;28;20104;-71
2022/01/06 10:14:10;;;;;;;14.93;6.30;;;;;;;3.54;100.00;101898.06;5209636;28;20030;-72
2022/01/06 10:16:50;;;;;;;16.55;6.10;;;;;;;3.58;100.00;101893.59;5210972;28;20033;-71
2022/01/06 10:19:21;;;;;;;27.00;8.05;;;;;;;3.64;100.00;101889.03;5208372;28;20056;-72
2022/01/06 10:21:57;;;;;;;24.38;6.53;;;;;;;3.71;100.00;101892.19;5210216;28;20108;-72
2022/01/06 10:24:29;;;;;;;17.65;6.68;;;;;;;3.76;100.00;101895.47;5208424;28;20135;-72
2022/01/06 10:27:04;;;;;;;18.42;6.00;;;;;;;3.85;100.00;101889.06;5211146;28;20026;-72
2022/01/06 10:29:44;;;;;;;23.45;6.47;;;;;;;3.99;100.00;101888.53;5209647;28;20026;-72
2022/01/06 10:32:21;;;;;;;21.77;6.43;;;;;;;4.08;100.00;101894.16;5211842;28;20022;-72
2022/01/06 10:34:54;;;;;;;19.08;6.20;;;;;;;4.15;100.00;101881.81;5211139;28;20398;-72
2022/01/06 10:37:35;;;;;;;20.65;6.22;;;;;;;4.23;100.00;101878.88;5210787;28;20383;-72
2022/01/06 10:40:28;;;;;;;17.02;6.30;;;;;;;4.31;100.00;101885.44;5210320;28;20436;-72
2022/01/06 10:43:05;;;;;;;21.38;5.53;;;;;;;4.42;100.00;101885.00;5206674;28;20202;-72
2022/01/06 10:45:36;;;;;;;23.95;5.88;;;;;;;4.46;100.00;101891.72;5208238;28;20061;-73
2022/01/06 10:48:08;;;;;;;22.02;5.65;;;;;;;4.47;100.00;101885.66;5209355;28;20483;-72
2022/01/06 10:50:39;;;;;;;17.55;6.10;;;;;;;4.57;100.00;101883.50;5211322;28;20582;-72
2022/01/06 10:53:12;;;;;;;16.08;5.07;;;;;;;4.62;100.00;101882.41;5210008;28;20025;-72
2022/01/06 10:55:46;;;;;;;17.97;5.47;;;;;;;4.69;100.00;101876.94;5210619;28;20084;-72
2022/01/06 10:58:25;;;;;;;19.75;6.10;;;;;;;4.80;100.00;101880.72;5211696;28;20595;-73
2022/01/06 11:01:03;;;;;;;16.20;5.57;;;;;;;4.80;100.00;101880.72;5207689;28;20084;-72
2022/01/06 11:03:35;;;;;;;19.42;6.10;;;;;;;4.85;100.00;101889.19;5211132;28;20057;-73
2022/01/06 11:06:07;;;;;;;14.18;5.25;;;;;;;4.91;100.00;101884.63;5211379;28;20029;-73
2022/01/06 11:08:42;;;;;;;18.23;5.50;;;;;;;4.96;100.00;101880.06;5208372;28;20034;-72
2022/01/06 11:11:27;;;;;;;17.60;5.75;;;;;;;4.99;100.00;101877.31;5207118;28;20059;-72
2022/01/06 11:13:59;;;;;;;13.85;4.47;;;;;;;5.03;100.00;101871.91;5208469;28;20105;-72
2022/01/06 11:16:30;;;;;;;17.48;5.80;;;;;;;5.03;100.00;101863.28;5209075;28;20461;-72
2022/01/06 11:19:03;;;;;;;17.20;5.60;;;;;;;5.12;100.00;101866.31;5201179;28;20029;-72
2022/01/06 11:21:34;;;;;;;;;;;;;;;5.53;100.00;101865.28;5208253;28;20076;-73
2022/01/06 11:24:15;;;;;;;20.67;5.03;;;;;;;5.31;100.00;101868.91;5211172;28;20015;-73
2022/01/06 11:27:04;;;;;;;17.75;5.82;;;;;;;5.41;100.00;101871.06;5208171;28;20076;-73
2022/01/06 11:29:39;;;;;;;15.38;4.38;;;;;;;5.30;100.00;101869.84;5206756;28;20108;-73
2022/01/06 11:32:24;;;;;;;16.38;5.65;;;;;;;5.48;100.00;101862.91;5208232;28;20328;-72
2022/01/06 11:35:08;;;;;;;16.15;4.93;;;;;;;5.52;100.00;101868.81;5211506;28;20399;-72
2022/01/06 11:37:48;;;;;;;15.82;4.85;;;;;;;5.55;100.00;101861.72;5207104;28;20034;-72
2022/01/06 11:40:31;;;;;;;17.80;4.97;;;;;;;5.68;100.00;101864.56;5209097;28;20387;-73
2022/01/06 11:43:03;;;;;;;13.63;4.57;;;;;;;5.64;100.00;101864.78;5209412;28;20374;-72
2022/01/06 11:45:34;;;;;;;14.05;4.65;;;;;;;5.74;100.00;101869.47;5208771;28;20050;-72
2022/01/06 11:48:09;;;;;;;13.48;4.82;;;;;;;5.81;100.00;101867.44;5206790;28;20025;-72
2022/01/06 11:50:43;;;;;;;16.08;4.85;;;;;;;5.84;100.00;101868.13;5209966;28;20034;-73